Saguenay, Canada
Current Conditions -  °F | °C
As of 5:00 AM on Friday 24 Oct 2014 (Local Time) from CYBG Reporting Station
Broken Clouds Broken Clouds  
Wind Chill: 34°   Ceiling: 17000
Heat Index: 34°   Visibility: 15mi
Dew Point: 28°   Wind: 0mph
Humidity: 81%   Direction: NA
Pressure: 29.99"   Gusts: NA
Location:  48.42°N, 71.07°W
Report Text: CYBG 240900Z 00000KT 15SM BKN170 01/M02 A2999 RMK AC7 SLP161
Loading
Personal Weather Stations






























Interactive Weather Map
Tropical Storm Tracking
New forecast layout! Learn more

10-Day Weather Forecast

Advertisements
Track Severe Weather on mobile